Bowman Field Louisville US
ICAO: KLOU
IATA: LOU
Category: Medium
Scheduled Services: No

Elevation: 546 ft
TransAlt. 18000 ft.

Airport Communications:
LOUISVILLE APP/DEP:123.675
ATIS:112.2
CLNC DEL:118.9
CTAF:119.5
GND:121.8
LOUISVILLE RDO:122.2
TWR:119.5
UNICOM:122.95

KLOU Zoom In..

Runways:

(A) RW 06 length 4358 ft width 75 ft
---- / hdg 64

(B) RW 15 length 3580 ft width 75 ft
---- / hdg 147

(C) RW 24 length 4358 ft width 75 ft
---- / hdg 244

(D) RW 33 length 3580 ft width 75 ft
---- / hdg 327

Location; KLOU
Day. 20 / Time. 02.53 Zulu
* Altimeter: 29.93
* Temperature: 27° c. 80.6°f.
* Wind from: 120° Speed 06 kn.
Dewpoint: 16° c.
Visibility: 10 Statute Miles.
Clouds: Clear (automated report).

KLOU 200253Z AUTO 12006KT 10SM CLR 27/16 A2993 RMK AO2 SLP129 60000 T02670156 53003 $


Wind From 120°
Speed 06 kn.

 
 
jpsmedia.com for Web Design worldairports.se 2018   terms of use